Time;durP1;ratioP1;P1;durP2;ratioP2;P2;SDS_P1;SDS_P2;PMS_P1;PMS_P2;Temp;Humidity;BMP_temperature;BMP_pressure;BME280_temperature;BME280_humidity;BME280_pressure;Samples;Min_cycle;Max_cycle;Signal;HPM_P1;HPM_P2
2021/03/20 00:01:13;;;;;;;4.35;3.55;;;;;;;22.72;34.82;94841.94;5055458;28;20092;-77
2021/03/20 00:03:38;;;;;;;4.13;3.28;;;;;;;22.55;34.49;94807.97;5054421;28;20040;-78
2021/03/20 00:06:04;;;;;;;6.15;3.47;;;;;;;22.63;34.81;94836.06;5055887;28;20025;-78
2021/03/20 00:08:29;;;;;;;5.88;3.78;;;;;;;22.63;34.79;94841.53;5054840;28;20032;-78
2021/03/20 00:10:55;;;;;;;4.53;3.53;;;;;;;22.59;34.89;94835.63;5055419;28;20036;-79
2021/03/20 00:13:21;;;;;;;4.13;3.50;;;;;;;22.56;34.99;94842.81;5053801;28;20033;-78
2021/03/20 00:15:47;;;;;;;5.60;3.65;;;;;;;22.55;35.11;94851.50;5053301;28;20029;-78
2021/03/20 00:18:12;;;;;;;4.35;3.38;;;;;;;22.54;34.89;94858.19;5055073;28;20025;-79
2021/03/20 00:20:40;;;;;;;4.75;3.30;;;;;;;22.08;34.94;94803.88;5053563;28;20455;-78
2021/03/20 00:23:05;;;;;;;5.25;3.55;;;;;;;22.08;35.09;94792.97;5053400;28;20223;-78
2021/03/20 00:25:31;;;;;;;4.30;3.38;;;;;;;22.23;35.01;94820.59;5054319;28;20048;-79
2021/03/20 00:27:57;;;;;;;5.07;3.70;;;;;;;22.43;35.02;94861.00;5054064;28;20049;-77
2021/03/20 00:30:22;;;;;;;4.70;3.53;;;;;;;22.42;35.11;94859.53;5055753;28;20117;-78
2021/03/20 00:32:48;;;;;;;4.43;3.63;;;;;;;22.11;35.28;94819.16;5055736;28;20535;-78
2021/03/20 00:35:13;;;;;;;4.15;3.35;;;;;;;22.35;35.47;94849.19;5037321;28;20142;-78
2021/03/20 00:37:39;;;;;;;4.22;3.28;;;;;;;22.36;35.12;94856.13;5055218;28;20064;-78
2021/03/20 00:40:06;;;;;;;4.57;3.53;;;;;;;22.36;35.24;94847.97;5037998;28;20059;-79
2021/03/20 00:42:32;;;;;;;5.40;3.83;;;;;;;22.34;34.96;94841.53;5041052;28;20041;-78
2021/03/20 00:44:57;;;;;;;4.53;3.58;;;;;;;21.89;35.36;94779.78;5054772;28;20425;-79
2021/03/20 00:47:23;;;;;;;4.50;3.30;;;;;;;22.04;35.26;94808.81;5054113;28;20013;-77
2021/03/20 00:49:48;;;;;;;4.57;3.30;;;;;;;22.26;34.95;94841.34;5053915;28;20428;-77
2021/03/20 00:52:14;;;;;;;4.95;3.70;;;;;;;22.24;35.47;94838.41;5039910;28;20360;-77
2021/03/20 00:54:39;;;;;;;5.05;3.50;;;;;;;22.23;35.32;94842.34;5033805;28;20021;-78
2021/03/20 00:57:05;;;;;;;5.75;4.00;;;;;;;22.18;35.35;94837.66;5034749;28;20018;-77
2021/03/20 00:59:30;;;;;;;4.85;3.67;;;;;;;22.12;35.47;94836.97;5050361;28;20542;-77
2021/03/20 01:01:56;;;;;;;4.70;3.58;;;;;;;22.04;35.41;94833.28;5053337;28;20033;-78
2021/03/20 01:04:21;;;;;;;4.85;3.67;;;;;;;21.71;35.53;94780.41;5054172;28;20035;-78
2021/03/20 01:06:47;;;;;;;5.53;4.00;;;;;;;22.13;35.39;94835.72;5053557;28;20040;-77
2021/03/20 01:09:12;;;;;;;4.47;3.53;;;;;;;21.74;35.53;94788.28;5053497;28;20096;-78
2021/03/20 01:11:38;;;;;;;4.18;3.55;;;;;;;22.08;35.35;94847.38;5054766;28;20079;-78
2021/03/20 01:14:03;;;;;;;4.88;4.03;;;;;;;22.08;35.37;94841.94;5036634;28;20108;-76
2021/03/20 01:16:29;;;;;;;4.70;3.65;;;;;;;22.06;35.61;94844.44;5053459;28;20017;-78
2021/03/20 01:18:55;;;;;;;5.28;3.85;;;;;;;22.04;35.53;94844.16;5035595;28;20402;-77
2021/03/20 01:21:21;;;;;;;4.68;3.60;;;;;;;22.06;35.45;94838.97;5053956;28;20052;-77
2021/03/20 01:23:46;;;;;;;3.97;3.03;;;;;;;21.53;35.30;94753.81;5053334;28;20036;-78
2021/03/20 01:26:12;;;;;;;4.88;4.10;;;;;;;22.04;35.47;94830.56;5040413;28;20030;-77
2021/03/20 01:28:38;;;;;;;5.07;3.50;;;;;;;22.03;35.46;94834.56;5052390;28;20380;-77
2021/03/20 01:31:04;;;;;;;4.70;3.65;;;;;;;22.00;35.41;94830.13;5052934;28;20071;-77
2021/03/20 01:33:29;;;;;;;4.65;3.13;;;;;;;22.02;35.55;94843.94;5053920;28;20020;-77
2021/03/20 01:35:55;;;;;;;4.40;3.38;;;;;;;22.00;35.52;94838.28;5053311;28;20068;-77
2021/03/20 01:38:20;;;;;;;4.18;3.50;;;;;;;21.71;35.54;94793.97;5053427;28;20045;-78
2021/03/20 01:40:51;;;;;;;4.88;3.50;;;;;;;21.96;35.63;94843.25;5053345;28;20102;-78
2021/03/20 01:43:17;;;;;;;4.68;3.45;;;;;;;21.95;35.65;94849.19;5053754;28;20025;-77
2021/03/20 01:45:42;;;;;;;4.07;3.45;;;;;;;21.89;35.68;94843.03;5051952;28;20024;-77
2021/03/20 01:48:11;;;;;;;4.25;3.70;;;;;;;21.94;35.62;94858.56;5053349;28;20027;-77
2021/03/20 01:50:45;;;;;;;4.65;3.45;;;;;;;21.64;35.50;94814.28;5053585;28;20033;-77
2021/03/20 01:53:38;;;;;;;4.75;3.30;;;;;;;21.89;35.64;94861.34;5036815;28;20021;-77
2021/03/20 01:56:06;;;;;;;4.85;3.60;;;;;;;21.90;35.56;94851.91;5048904;28;20879;-78
2021/03/20 01:58:31;;;;;;;4.53;3.45;;;;;;;21.81;35.60;94844.81;5052989;28;20033;-77
2021/03/20 02:01:02;;;;;;;5.13;3.58;;;;;;;21.89;35.54;94855.91;5053301;28;20035;-77
2021/03/20 02:03:29;;;;;;;4.90;3.72;;;;;;;21.87;35.54;94852.94;5050151;28;20021;-76
2021/03/20 02:05:55;;;;;;;5.35;3.80;;;;;;;21.42;35.70;94791.91;5033664;28;20044;-77
2021/03/20 02:08:20;;;;;;;4.97;3.38;;;;;;;21.82;35.61;94851.00;5032236;28;20420;-78
2021/03/20 02:10:46;;;;;;;5.05;3.80;;;;;;;21.76;35.78;94853.00;5033414;28;20028;-78
2021/03/20 02:13:14;;;;;;;4.88;3.70;;;;;;;21.69;35.67;94832.53;5032004;28;20017;-77
2021/03/20 02:15:45;;;;;;;4.90;3.80;;;;;;;21.76;35.72;94848.28;5049283;28;20029;-77
2021/03/20 02:18:32;;;;;;;4.60;3.50;;;;;;;21.74;35.84;94856.22;5031870;28;20029;-77
2021/03/20 02:21:11;;;;;;;4.40;3.38;;;;;;;21.75;35.89;94851.50;5047784;28;20030;-77
2021/03/20 02:24:14;;;;;;;3.95;3.22;;;;;;;21.74;35.75;94850.06;5052690;28;20047;-78
2021/03/20 02:26:57;;;;;;;4.85;3.58;;;;;;;21.73;35.72;94845.84;5052966;28;20503;-76
2021/03/20 02:29:44;;;;;;;5.25;3.72;;;;;;;21.72;35.71;94847.06;5051761;28;20028;-77
2021/03/20 02:32:40;;;;;;;5.57;3.83;;;;;;;21.71;35.76;94856.50;5051885;28;20033;-75
2021/03/20 02:35:13;;;;;;;5.00;3.72;;;;;;;21.71;35.80;94856.50;5033065;28;20128;-77
2021/03/20 02:37:42;;;;;;;5.10;3.58;;;;;;;21.71;35.73;94856.50;5031440;28;20049;-77
2021/03/20 02:40:23;;;;;;;4.00;3.20;;;;;;;21.69;35.80;94851.56;5031940;28;20034;-78
2021/03/20 02:43:01;;;;;;;4.93;3.83;;;;;;;21.55;35.86;94843.72;5031759;28;20090;-77
2021/03/20 02:45:46;;;;;;;4.55;3.40;;;;;;;21.65;35.66;94855.78;5031747;28;20021;-77
2021/03/20 02:48:33;;;;;;;5.40;3.80;;;;;;;21.67;35.79;94850.56;5031911;28;20025;-78
2021/03/20 02:51:08;;;;;;;5.18;3.70;;;;;;;21.66;35.68;94849.13;5031801;28;20063;-76
2021/03/20 02:53:38;;;;;;;4.85;3.92;;;;;;;21.62;35.88;94845.91;5032425;28;20033;-77
2021/03/20 02:56:04;;;;;;;;;;;;;;;21.65;35.70;94853.06;5031708;28;20235;-77
2021/03/20 02:58:32;;;;;;;4.45;3.35;;;;;;;21.63;35.73;94850.13;5065086;28;19999;-77
2021/03/20 03:01:03;;;;;;;5.50;3.60;;;;;;;21.63;35.86;94847.41;5031789;28;20029;-76
2021/03/20 03:03:33;;;;;;;5.68;3.58;;;;;;;21.35;35.67;94814.13;5032059;28;20069;-79
2021/03/20 03:06:00;;;;;;;3.88;3.40;;;;;;;21.62;35.77;94854.78;5032039;28;20075;-77
2021/03/20 03:08:32;;;;;;;4.85;3.90;;;;;;;21.62;35.69;94859.50;5031653;28;20025;-77
2021/03/20 03:11:26;;;;;;;5.10;3.90;;;;;;;21.59;35.74;94855.06;5042551;28;20088;-77
2021/03/20 03:14:00;;;;;;;4.63;3.60;;;;;;;21.58;35.83;94853.56;5009404;28;20037;-77
2021/03/20 03:16:39;;;;;;;6.10;3.70;;;;;;;21.58;35.84;94864.44;5030236;28;20029;-77
2021/03/20 03:19:13;;;;;;;5.57;4.05;;;;;;;21.57;35.74;94865.69;5045147;28;20029;-77
2021/03/20 03:21:41;;;;;;;5.07;3.90;;;;;;;21.57;35.79;94863.00;5046232;28;20088;-76
2021/03/20 03:24:08;;;;;;;5.72;3.67;;;;;;;21.29;35.83;94816.13;5041770;28;20034;-77
2021/03/20 03:26:37;;;;;;;6.13;3.92;;;;;;;21.57;35.76;94857.56;5050793;28;20037;-77
2021/03/20 03:29:07;;;;;;;5.43;3.60;;;;;;;21.57;35.83;94863.00;5034016;28;20117;-78
2021/03/20 03:31:32;;;;;;;5.78;3.90;;;;;;;21.57;35.78;94860.28;5032432;28;20520;-79
2021/03/20 03:34:00;;;;;;;5.43;3.95;;;;;;;21.56;35.76;94864.22;5033393;28;20060;-78
2021/03/20 03:36:26;;;;;;;4.55;3.65;;;;;;;21.31;36.26;94835.38;5031371;28;20073;-77
2021/03/20 03:38:56;;;;;;;5.00;3.80;;;;;;;21.55;36.07;94873.59;5048213;28;20040;-77
2021/03/20 03:41:26;;;;;;;5.82;4.20;;;;;;;21.55;35.81;94870.88;5031356;28;20456;-77
2021/03/20 03:43:52;;;;;;;5.63;3.90;;;;;;;21.26;35.66;94832.69;5046470;28;20502;-77
2021/03/20 03:46:26;;;;;;;5.53;4.03;;;;;;;21.53;35.90;94878.81;5033799;28;20021;-78
2021/03/20 03:48:53;;;;;;;5.78;3.95;;;;;;;21.51;35.73;94865.00;5052552;28;20021;-77
2021/03/20 03:51:18;;;;;;;4.75;3.60;;;;;;;21.52;35.86;94866.44;5051501;28;20490;-77
2021/03/20 03:53:44;;;;;;;5.15;3.92;;;;;;;21.44;35.95;94849.16;5050813;28;20063;-77
2021/03/20 03:56:33;;;;;;;6.30;3.83;;;;;;;21.67;35.96;94861.44;5052171;28;20033;-77
2021/03/20 03:59:03;;;;;;;5.20;3.70;;;;;;;21.48;35.94;94817.09;5051458;28;20039;-78
2021/03/20 04:01:55;;;;;;;4.63;3.58;;;;;;;21.76;35.94;94859.16;5051413;28;20386;-78
2021/03/20 04:04:28;;;;;;;6.20;3.70;;;;;;;21.82;36.02;94862.59;5030487;28;20037;-78
2021/03/20 04:07:25;;;;;;;5.22;4.00;;;;;;;21.84;35.91;94853.94;5050047;28;20040;-78
2021/03/20 04:10:26;;;;;;;5.05;3.78;;;;;;;21.90;35.80;94862.78;5048153;28;20045;-78
2021/03/20 04:13:18;;;;;;;6.05;4.13;;;;;;;21.92;35.82;94865.78;5051479;28;20021;-79
2021/03/20 04:15:53;;;;;;;5.13;3.70;;;;;;;21.92;35.94;94856.34;5050240;28;20036;-78
2021/03/20 04:18:30;;;;;;;4.47;3.20;;;;;;;21.93;35.91;94863.28;5035859;28;20467;-78
2021/03/20 04:21:26;;;;;;;4.53;3.63;;;;;;;21.94;35.84;94870.19;5033551;28;20037;-78
2021/03/20 04:24:13;;;;;;;4.50;3.65;;;;;;;21.98;35.86;94869.94;5032148;28;20029;-78
2021/03/20 04:27:15;;;;;;;4.28;3.47;;;;;;;21.92;35.81;94854.91;5030660;28;20406;-79
2021/03/20 04:29:46;;;;;;;5.35;3.50;;;;;;;22.02;35.79;94860.25;5041412;28;20052;-81
2021/03/20 04:32:24;;;;;;;5.78;4.20;;;;;;;21.93;35.53;94846.25;5030968;28;20061;-81
2021/03/20 04:35:02;;;;;;;5.32;3.90;;;;;;;21.82;35.74;94829.25;5030146;28;20030;-80
2021/03/20 04:37:32;;;;;;;5.00;4.15;;;;;;;22.08;35.71;94869.13;5039699;28;20525;-79
2021/03/20 04:39:57;;;;;;;5.07;3.67;;;;;;;21.77;35.49;94822.59;5033880;28;20038;-78
2021/03/20 04:42:28;;;;;;;5.07;3.75;;;;;;;21.86;35.77;94824.28;5033255;28;20082;-76
2021/03/20 04:44:54;;;;;;;4.05;3.20;;;;;;;22.13;35.62;94860.19;5035230;28;20025;-79
2021/03/20 04:47:25;;;;;;;4.07;3.53;;;;;;;22.15;35.48;94852.28;5055408;28;20501;-80
2021/03/20 04:50:02;;;;;;;5.32;3.38;;;;;;;22.17;35.52;94860.66;5053489;28;20056;-79
2021/03/20 04:52:30;;;;;;;4.45;3.42;;;;;;;22.19;35.88;94858.16;5053843;28;20036;-83
2021/03/20 04:54:59;;;;;;;5.50;3.78;;;;;;;22.20;35.59;94859.66;5038713;28;20090;-89
2021/03/20 04:57:37;;;;;;;4.97;3.67;;;;;;;21.98;35.54;94816.28;5021241;28;20037;-80
2021/03/20 05:00:08;;;;;;;5.85;3.50;;;;;;;22.23;35.43;94853.22;5036883;28;20045;-81
2021/03/20 05:02:49;;;;;;;5.70;4.60;;;;;;;22.23;34.30;94853.22;5044727;28;20496;-86
2021/03/20 05:05:29;;;;;;;7.43;5.22;;;;;;;22.10;33.38;94853.03;5034684;28;20055;-78
2021/03/20 05:07:59;;;;;;;5.30;4.05;;;;;;;21.71;34.88;94802.13;5034525;28;20019;-79
2021/03/20 05:10:32;;;;;;;5.55;4.57;;;;;;;22.16;35.15;94870.06;5033282;28;20537;-76
2021/03/20 05:12:58;;;;;;;5.70;4.50;;;;;;;21.73;35.00;94805.09;5032354;28;20030;-76
2021/03/20 05:15:28;;;;;;;7.45;4.35;;;;;;;22.14;34.90;94867.09;5039837;28;20029;-75
2021/03/20 05:17:54;;;;;;;6.22;4.50;;;;;;;22.20;35.06;94867.81;5049239;28;20076;-78
2021/03/20 05:20:19;;;;;;;5.85;3.90;;;;;;;22.00;35.27;94843.72;5034377;28;20025;-78
2021/03/20 05:22:45;;;;;;;5.57;3.97;;;;;;;22.26;35.04;94878.69;5033073;28;20083;-76
2021/03/20 05:25:13;;;;;;;5.32;3.88;;;;;;;22.26;35.16;94876.69;5036714;28;20033;-77
2021/03/20 05:27:39;;;;;;;7.28;4.68;;;;;;;22.26;34.94;94873.25;5040069;28;20055;-75
2021/03/20 05:30:05;;;;;;;5.50;4.50;;;;;;;22.28;35.23;94868.03;5036606;28;20486;-78
2021/03/20 05:32:31;;;;;;;5.78;4.20;;;;;;;22.25;35.18;94875.22;5038105;28;20060;-77
2021/03/20 05:34:57;;;;;;;5.38;3.92;;;;;;;22.30;35.25;94876.44;5032956;28;20030;-77
2021/03/20 05:37:26;;;;;;;5.03;3.90;;;;;;;22.31;35.21;94873.19;5037127;28;20043;-76
2021/03/20 05:39:52;;;;;;;5.80;4.07;;;;;;;22.30;35.11;94873.69;5033263;28;20418;-74
2021/03/20 05:42:36;;;;;;;5.53;4.10;;;;;;;22.32;35.06;94866.53;5034125;28;20030;-74
2021/03/20 05:45:10;;;;;;;5.72;4.20;;;;;;;22.32;35.17;94877.41;5039051;28;20029;-74
2021/03/20 05:47:46;;;;;;;5.03;4.00;;;;;;;22.33;34.92;94873.44;5040108;28;20029;-74
2021/03/20 05:50:40;;;;;;;4.82;3.92;;;;;;;22.35;35.04;94870.94;5032009;28;20021;-75
2021/03/20 05:53:21;;;;;;;4.75;3.90;;;;;;;22.35;35.01;94879.13;5046188;28;20036;-74
2021/03/20 05:55:46;;;;;;;6.15;4.18;;;;;;;22.38;35.06;94878.09;5033625;28;20037;-76
2021/03/20 05:58:43;;;;;;;6.43;4.40;;;;;;;22.14;34.81;94839.19;5034833;28;21754;-76
2021/03/20 06:01:28;;;;;;;6.05;4.05;;;;;;;22.13;35.09;94838.44;5034995;28;20562;-75
2021/03/20 06:04:16;;;;;;;5.93;4.20;;;;;;;22.40;34.91;94883.78;5035713;28;20032;-82
2021/03/20 06:07:09;;;;;;;5.63;4.28;;;;;;;22.42;35.12;94870.41;5054142;28;20056;-77
2021/03/20 06:10:12;;;;;;;5.53;4.00;;;;;;;22.42;34.98;94875.84;5051822;28;20041;-82
2021/03/20 06:12:37;;;;;;;7.28;4.78;;;;;;;22.42;35.14;94864.97;5053255;28;20033;-80
2021/03/20 06:15:12;;;;;;;7.25;5.28;;;;;;;22.36;33.07;94877.88;5052235;28;20040;-78
2021/03/20 06:17:40;;;;;;;5.88;4.47;;;;;;;22.36;34.29;94872.44;5051797;28;20099;-78
2021/03/20 06:20:17;;;;;;;6.38;4.07;;;;;;;22.20;34.70;94842.59;5044983;28;20443;-80
2021/03/20 06:23:01;;;;;;;6.00;4.20;;;;;;;22.40;34.89;94872.88;5051816;28;20025;-77
2021/03/20 06:25:56;;;;;;;7.50;4.03;;;;;;;22.42;34.73;94881.31;5048549;28;20029;-78
2021/03/20 06:28:44;;;;;;;7.60;4.47;;;;;;;22.44;34.83;94878.81;5019183;28;20536;-76
2021/03/20 06:31:20;;;;;;;5.47;4.15;;;;;;;22.38;34.89;94864.50;5035950;28;20449;-75
2021/03/20 06:33:52;;;;;;;5.35;4.00;;;;;;;22.24;34.89;94835.69;5042770;28;20528;-77
2021/03/20 06:36:21;;;;;;;6.07;4.35;;;;;;;22.24;34.92;94835.69;5020888;28;20049;-82
2021/03/20 06:39:13;;;;;;;6.45;4.50;;;;;;;22.23;35.07;94831.47;5039881;28;20124;-80
2021/03/20 06:41:42;;;;;;;5.43;4.20;;;;;;;22.60;34.60;94875.19;5021711;28;20036;-75
2021/03/20 06:44:23;;;;;;;6.13;4.30;;;;;;;22.65;34.54;94879.88;5018142;28;20112;-75
2021/03/20 06:46:49;;;;;;;6.35;4.22;;;;;;;22.49;34.44;94837.19;5032680;28;20045;-75
2021/03/20 06:49:21;;;;;;;7.03;4.47;;;;;;;22.82;34.54;94877.75;5021122;28;20029;-78
2021/03/20 06:51:46;;;;;;;6.03;3.90;;;;;;;22.40;34.46;94802.16;5044793;28;20025;-78
2021/03/20 06:54:12;;;;;;;6.65;4.53;;;;;;;23.00;34.23;94875.88;5052004;28;20037;-76
2021/03/20 06:56:37;;;;;;;5.50;3.90;;;;;;;23.10;33.95;94871.56;5035939;28;20028;-76
2021/03/20 06:59:12;;;;;;;6.80;4.40;;;;;;;23.20;33.95;94878.16;5035874;28;20117;-76
2021/03/20 07:02:22;;;;;;;5.38;4.07;;;;;;;23.31;33.93;94880.75;5045884;28;20119;-79
2021/03/20 07:04:58;;;;;;;5.45;4.10;;;;;;;23.41;33.48;94882.63;5036391;28;20041;-77
2021/03/20 07:07:41;;;;;;;5.55;4.30;;;;;;;23.53;33.60;94888.69;5040958;28;20043;-78
2021/03/20 07:10:21;;;;;;;6.28;4.40;;;;;;;23.63;33.48;94892.53;5039010;28;20029;-77
2021/03/20 07:13:10;;;;;;;7.30;4.50;;;;;;;23.74;33.13;94876.06;5033201;28;20018;-75
2021/03/20 07:15:35;;;;;;;5.57;4.10;;;;;;;23.84;33.25;94877.16;5035206;28;20026;-75
2021/03/20 07:18:30;;;;;;;7.05;4.13;;;;;;;23.94;32.72;94879.75;5051125;28;20031;-77
2021/03/20 07:20:56;;;;;;;6.13;4.22;;;;;;;23.65;32.40;94830.81;5034660;28;20490;-76
2021/03/20 07:23:21;;;;;;;6.22;4.10;;;;;;;24.08;32.73;94875.84;5038620;28;20032;-76
2021/03/20 07:26:06;;;;;;;6.05;4.50;;;;;;;23.96;32.28;94839.06;5037798;28;20025;-76
2021/03/20 07:28:32;;;;;;;7.65;4.38;;;;;;;24.25;32.29;94876.34;5014085;28;20029;-79
2021/03/20 07:31:08;;;;;;;5.13;4.00;;;;;;;24.10;32.32;94843.34;5049959;28;20050;-79
2021/03/20 07:33:40;;;;;;;8.32;5.50;;;;;;;24.37;31.41;94872.25;5022889;28;20460;-79
2021/03/20 07:36:30;;;;;;;7.38;4.43;;;;;;;24.47;31.67;94870.59;5039102;28;20125;-82
2021/03/20 07:39:14;;;;;;;6.00;4.43;;;;;;;24.55;32.18;94869.47;5043261;28;20041;-83
2021/03/20 07:41:43;;;;;;;9.60;4.25;;;;;;;24.63;32.00;94872.31;5041272;28;20037;-80
2021/03/20 07:44:08;;;;;;;6.15;4.57;;;;;;;24.68;32.11;94871.50;5041943;28;20067;-81
2021/03/20 07:46:34;;;;;;;7.82;4.20;;;;;;;24.60;31.80;94854.25;5037091;28;20033;-73
2021/03/20 07:49:04;;;;;;;6.22;4.18;;;;;;;24.78;31.94;94880.78;5048391;28;20118;-78
2021/03/20 07:51:47;;;;;;;6.97;4.35;;;;;;;24.86;31.96;94880.38;5042681;28;20498;-78
2021/03/20 07:54:29;;;;;;;7.13;4.60;;;;;;;24.94;31.56;94875.03;5048078;28;20115;-75
2021/03/20 07:56:55;;;;;;;8.63;4.53;;;;;;;24.99;31.60;94883.19;5026660;28;20105;-83
2021/03/20 07:59:26;;;;;;;6.90;4.22;;;;;;;24.82;31.63;94838.25;5049352;28;20029;-82
2021/03/20 08:01:55;;;;;;;5.55;3.90;;;;;;;25.12;31.61;94880.44;5023942;28;20033;-82
2021/03/20 08:04:53;;;;;;;5.88;4.25;;;;;;;25.18;31.56;94878.34;5048234;28;20041;-80
2021/03/20 08:07:32;;;;;;;6.18;4.20;;;;;;;25.23;31.45;94885.72;5046195;28;20029;-80
2021/03/20 08:10:27;;;;;;;5.05;4.15;;;;;;;25.27;31.34;94896.34;5036330;28;20037;-80
2021/03/20 08:12:52;;;;;;;5.45;4.07;;;;;;;25.31;31.07;94892.03;5045973;28;20082;-80
2021/03/20 08:15:21;;;;;;;6.32;4.50;;;;;;;25.33;31.34;94889.50;5050686;28;20033;-86
2021/03/20 08:17:46;;;;;;;6.78;4.30;;;;;;;25.34;31.10;94891.00;5036093;28;20032;-77
2021/03/20 08:20:16;;;;;;;5.40;4.35;;;;;;;25.40;31.15;94891.63;5029204;28;20021;-78
2021/03/20 08:23:04;;;;;;;7.57;4.20;;;;;;;25.43;30.98;94898.78;5045223;28;20124;-72
2021/03/20 08:25:57;;;;;;;6.82;3.95;;;;;;;25.49;31.11;94902.16;5035293;28;20029;-78
2021/03/20 08:28:32;;;;;;;8.27;4.57;;;;;;;25.47;31.09;94904.66;5053953;28;20024;-78
2021/03/20 08:31:28;;;;;;;6.65;4.20;;;;;;;25.49;31.06;94910.34;5048808;28;20098;-77
2021/03/20 08:34:26;;;;;;;8.82;5.85;;;;;;;25.51;30.65;94905.09;5050912;28;20021;-78
2021/03/20 08:37:09;;;;;;;13.82;4.65;;;;;;;25.56;31.04;94901.50;5044844;28;20068;-77
2021/03/20 08:39:51;;;;;;;8.43;4.97;;;;;;;25.60;31.13;94907.41;5058311;28;20032;-79
2021/03/20 08:42:46;;;;;;;9.25;4.45;;;;;;;25.64;30.96;94913.28;5042011;28;20021;-82
2021/03/20 08:45:19;;;;;;;6.78;4.32;;;;;;;25.70;30.85;94911.22;5051313;28;20020;-76
2021/03/20 08:48:14;;;;;;;7.18;4.22;;;;;;;25.68;31.13;94903.53;5036318;28;20028;-77
2021/03/20 08:51:08;;;;;;;7.60;4.47;;;;;;;25.74;30.57;94906.16;5042333;28;20040;-78
2021/03/20 08:53:54;;;;;;;9.32;4.90;;;;;;;25.58;30.90;94877.13;5045106;28;20111;-77
2021/03/20 08:56:53;;;;;;;7.60;4.07;;;;;;;25.75;30.68;94899.44;5050047;28;20021;-77
2021/03/20 08:59:54;;;;;;;6.35;4.35;;;;;;;25.74;30.73;94885.03;5044636;28;20127;-77
2021/03/20 09:02:29;;;;;;;6.70;4.55;;;;;;;25.79;30.80;94891.66;5036777;28;20115;-77
2021/03/20 09:04:59;;;;;;;6.53;4.15;;;;;;;25.75;30.42;94902.88;5045732;28;20106;-77
2021/03/20 09:07:28;;;;;;;8.90;4.65;;;;;;;25.47;30.67;94869.09;5060894;28;20064;-78
2021/03/20 09:09:55;;;;;;;6.65;4.68;;;;;;;25.66;30.74;94911.53;5029086;28;20085;-77
2021/03/20 09:12:27;;;;;;;5.40;4.00;;;;;;;25.58;30.92;94915.41;5042229;28;20032;-78
2021/03/20 09:14:52;;;;;;;7.90;4.18;;;;;;;25.45;30.98;94891.50;5044651;28;20497;-77
2021/03/20 09:17:26;;;;;;;7.15;4.55;;;;;;;25.47;31.06;94904.66;5046337;28;20036;-77
2021/03/20 09:19:57;;;;;;;8.30;4.57;;;;;;;25.31;31.09;94886.56;5043473;28;20036;-77
2021/03/20 09:22:24;;;;;;;6.03;4.30;;;;;;;25.28;31.13;94904.03;5041135;28;20044;-77
2021/03/20 09:24:54;;;;;;;5.63;4.45;;;;;;;24.89;31.38;94852.00;5026188;28;20033;-78
2021/03/20 09:27:57;;;;;;;5.20;4.15;;;;;;;25.14;31.58;94888.88;5038633;28;20040;-78
2021/03/20 09:30:43;;;;;;;7.57;4.75;;;;;;;25.08;31.30;94882.78;5045152;28;20564;-77
2021/03/20 09:33:29;;;;;;;5.75;4.15;;;;;;;25.01;31.72;94886.13;5033006;28;20041;-78
2021/03/20 09:36:01;;;;;;;5.47;4.18;;;;;;;24.90;31.55;94891.75;5041809;28;20516;-77
2021/03/20 09:38:35;;;;;;;6.22;3.90;;;;;;;24.86;31.54;94890.56;5043662;28;20029;-78
2021/03/20 09:41:13;;;;;;;5.60;4.25;;;;;;;24.83;31.76;94891.63;5033741;28;20033;-77
2021/03/20 09:44:03;;;;;;;6.10;4.30;;;;;;;24.79;31.90;94885.00;5046801;28;20037;-77
2021/03/20 09:46:38;;;;;;;6.05;4.32;;;;;;;24.57;31.82;94858.03;5033681;28;20021;-77
2021/03/20 09:49:23;;;;;;;7.55;5.03;;;;;;;24.67;31.99;94864.56;5042479;28;20029;-77
2021/03/20 09:51:57;;;;;;;6.57;4.53;;;;;;;24.62;32.27;94870.84;5044401;28;20033;-77
2021/03/20 09:54:23;;;;;;;6.25;4.53;;;;;;;24.56;32.25;94867.50;5045070;28;20099;-78
2021/03/20 09:56:58;;;;;;;7.22;4.43;;;;;;;24.30;32.45;94833.88;5033086;28;20033;-77
2021/03/20 09:59:35;;;;;;;6.05;4.68;;;;;;;24.46;32.44;94869.13;5044861;28;20029;-78
2021/03/20 10:02:01;;;;;;;6.38;4.60;;;;;;;24.43;32.87;94864.69;5052093;28;20041;-78
2021/03/20 10:04:29;;;;;;;4.72;3.70;;;;;;;24.08;32.43;94824.03;5045743;28;20029;-76
2021/03/20 10:07:26;;;;;;;7.22;4.07;;;;;;;24.33;32.48;94852.69;5035007;28;20115;-77
2021/03/20 10:09:57;;;;;;;5.38;4.20;;;;;;;24.32;32.73;94853.94;5043368;28;20052;-77
2021/03/20 10:12:26;;;;;;;4.82;3.85;;;;;;;24.10;32.38;94820.78;5052291;28;20033;-76
2021/03/20 10:15:00;;;;;;;5.35;4.18;;;;;;;24.27;32.74;94846.53;5052520;28;20029;-76
2021/03/20 10:17:28;;;;;;;5.80;4.03;;;;;;;24.22;32.50;94844.66;5053093;28;20033;-76
2021/03/20 10:20:13;;;;;;;5.88;4.40;;;;;;;23.99;32.81;94826.38;5050626;28;20033;-77
2021/03/20 10:22:52;;;;;;;6.90;4.38;;;;;;;23.97;33.01;94817.97;5044386;28;20537;-77
2021/03/20 10:25:18;;;;;;;4.93;4.13;;;;;;;24.11;32.75;94850.28;5051775;28;20021;-77
2021/03/20 10:27:51;;;;;;;5.60;4.10;;;;;;;23.90;33.04;94818.56;5051733;28;20075;-76
2021/03/20 10:30:22;;;;;;;5.93;4.50;;;;;;;23.87;33.09;94814.91;5033989;28;20029;-77
2021/03/20 10:33:00;;;;;;;6.00;4.38;;;;;;;24.03;32.88;94852.09;5050740;28;20033;-78
2021/03/20 10:35:26;;;;;;;10.40;4.10;;;;;;;24.02;32.86;94837.00;5051100;28;20413;-77
2021/03/20 10:37:51;;;;;;;7.05;4.57;;;;;;;24.00;33.47;94842.22;5052317;28;20425;-81
2021/03/20 10:40:25;;;;;;;6.65;4.25;;;;;;;23.99;33.44;94837.28;5051639;28;20020;-76
2021/03/20 10:43:01;;;;;;;6.43;4.40;;;;;;;23.97;33.30;94834.34;5050919;28;20024;-76
2021/03/20 10:45:26;;;;;;;7.53;4.55;;;;;;;23.94;33.46;94833.38;5035608;28;20134;-76
2021/03/20 10:48:04;;;;;;;5.53;4.15;;;;;;;23.92;33.67;94833.16;5038801;28;20033;-77
2021/03/20 10:50:35;;;;;;;8.80;4.43;;;;;;;23.88;33.66;94835.47;5043786;28;20036;-78
2021/03/20 10:53:04;;;;;;;9.27;3.90;;;;;;;23.65;34.00;94797.38;5034940;28;20028;-76
2021/03/20 10:55:41;;;;;;;5.40;4.20;;;;;;;23.84;34.14;94834.28;5047552;28;20051;-77
2021/03/20 10:58:07;;;;;;;6.38;4.30;;;;;;;23.82;34.41;94828.59;5043613;28;20059;-79
2021/03/20 11:00:41;;;;;;;7.32;4.60;;;;;;;23.78;34.42;94822.72;5025108;28;20029;-78
2021/03/20 11:03:33;;;;;;;6.32;4.07;;;;;;;23.80;34.41;94814.03;5045303;28;20028;-78
2021/03/20 11:06:12;;;;;;;6.03;4.30;;;;;;;23.79;34.60;94823.44;5052156;28;20028;-79
2021/03/20 11:08:37;;;;;;;8.02;4.28;;;;;;;23.81;34.43;94818.97;5059810;28;20460;-79
2021/03/20 11:11:07;;;;;;;7.63;5.07;;;;;;;23.85;34.71;94815.94;5043775;28;20029;-78
2021/03/20 11:13:42;;;;;;;8.77;4.45;;;;;;;23.71;34.55;94784.41;5058637;28;20560;-79
2021/03/20 11:16:22;;;;;;;7.32;4.70;;;;;;;23.93;34.65;94812.84;5056364;28;20064;-79
2021/03/20 11:18:54;;;;;;;7.47;4.57;;;;;;;24.02;34.02;94809.72;5042444;28;20505;-76
2021/03/20 11:21:29;;;;;;;7.40;4.72;;;;;;;24.10;34.25;94805.13;5060675;28;20045;-79
2021/03/20 11:24:03;;;;;;;8.27;4.45;;;;;;;24.18;33.85;94800.53;5039879;28;20032;-76
2021/03/20 11:26:43;;;;;;;6.20;4.40;;;;;;;24.26;33.81;94800.66;5044499;28;20222;-77
2021/03/20 11:29:14;;;;;;;6.50;4.20;;;;;;;24.33;33.83;94798.09;5031849;28;20073;-77
2021/03/20 11:31:55;;;;;;;6.78;4.43;;;;;;;24.41;33.95;94788.78;5030365;28;20081;-80
2021/03/20 11:34:27;;;;;;;7.75;4.63;;;;;;;24.52;33.87;94782.41;5041710;28;20556;-79
2021/03/20 11:36:53;;;;;;;6.85;4.40;;;;;;;24.25;33.19;94728.28;5030523;28;20049;-86
2021/03/20 11:39:18;;;;;;;6.85;4.70;;;;;;;24.49;33.24;94753.44;5029617;28;20025;-80
2021/03/20 11:41:44;;;;;;;8.13;4.38;;;;;;;24.53;33.25;94732.03;5019836;28;20044;-85
2021/03/20 11:44:23;;;;;;;6.50;4.35;;;;;;;24.88;33.46;94776.78;5031249;28;20032;-84
2021/03/20 11:46:55;;;;;;;11.63;4.57;;;;;;;24.75;32.95;94739.81;5031943;28;20028;-79
2021/03/20 11:49:40;;;;;;;6.38;4.68;;;;;;;25.05;32.79;94771.78;5042892;28;20130;-79
2021/03/20 11:52:08;;;;;;;9.43;5.10;;;;;;;25.14;33.16;94768.63;5040080;28;20030;-80
2021/03/20 11:54:38;;;;;;;7.38;4.60;;;;;;;25.15;32.62;94759.16;5051937;28;20025;-77
2021/03/20 11:57:21;;;;;;;8.20;4.30;;;;;;;25.24;32.97;94761.47;5049997;28;20106;-77
2021/03/20 11:59:46;;;;;;;7.07;4.55;;;;;;;25.30;33.01;94764.81;5040403;28;20040;-78
2021/03/20 12:02:32;;;;;;;6.28;4.32;;;;;;;25.34;32.91;94759.78;5039690;28;20235;-79
2021/03/20 12:05:09;;;;;;;8.30;4.93;;;;;;;25.42;32.87;94760.59;5050556;28;20029;-79
2021/03/20 12:07:35;;;;;;;7.07;4.82;;;;;;;25.45;32.98;94748.59;5047859;28;20040;-77